createdAt,value
2018-09-25T00:03:40.676Z,102092.95
2018-09-25T00:09:04.416Z,102097.61
2018-09-25T00:14:28.143Z,102098.59
2018-09-25T00:19:52.044Z,102101.80
2018-09-25T00:25:16.723Z,102099.49
2018-09-25T00:30:40.551Z,102099.62
2018-09-25T00:36:04.377Z,102099.11
2018-09-25T00:41:27.955Z,102094.08
2018-09-25T00:46:51.779Z,102113.60
2018-09-25T00:52:15.542Z,102112.32
2018-09-25T00:57:39.181Z,102116.17
2018-09-25T01:03:02.969Z,102115.70
2018-09-25T01:08:26.791Z,102121.42
2018-09-25T01:13:50.561Z,102117.10
2018-09-25T01:19:14.346Z,102118.97
2018-09-25T01:24:38.198Z,102119.60
2018-09-25T01:30:01.883Z,102124.95
2018-09-25T01:35:25.854Z,102127.59
2018-09-25T01:40:49.599Z,102128.97
2018-09-25T01:46:13.450Z,102132.20
2018-09-25T01:51:37.248Z,102137.69
2018-09-25T01:57:01.109Z,102134.38
2018-09-25T02:02:24.820Z,102131.11
2018-09-25T02:07:48.570Z,102134.77
2018-09-25T02:13:12.266Z,102135.62
2018-09-25T02:18:36.102Z,102138.25
2018-09-25T02:24:00.048Z,102132.77
2018-09-25T02:29:23.822Z,102136.53
2018-09-25T02:34:47.583Z,102141.02
2018-09-25T02:40:11.585Z,102139.85
2018-09-25T02:45:35.436Z,102142.70
2018-09-25T02:50:59.102Z,102137.69
2018-09-25T02:56:22.888Z,102125.08
2018-09-25T03:01:46.721Z,102120.42
2018-09-25T03:07:10.605Z,102121.27
2018-09-25T03:12:34.304Z,102121.42
2018-09-25T03:17:58.037Z,102124.17
2018-09-25T03:23:21.742Z,102128.49
2018-09-25T03:28:45.684Z,102133.97
2018-09-25T03:34:09.523Z,102133.66
2018-09-25T03:39:33.395Z,102132.38
2018-09-25T03:44:57.141Z,102131.02
2018-09-25T03:50:21.020Z,102125.67
2018-09-25T03:55:44.980Z,102128.83
2018-09-25T04:01:09.166Z,102127.26
2018-09-25T04:06:33.272Z,102124.22
2018-09-25T04:11:57.284Z,102122.00
2018-09-25T04:17:21.253Z,102124.98
2018-09-25T04:22:45.232Z,102131.23
2018-09-25T04:28:09.033Z,102129.91
2018-09-25T04:33:33.131Z,102141.60
2018-09-25T04:38:57.106Z,102144.41
2018-09-25T04:44:21.093Z,102146.90
2018-09-25T04:49:45.878Z,102154.14
2018-09-25T04:55:10.023Z,102158.72
2018-09-25T05:00:36.559Z,102164.11
2018-09-25T05:06:00.526Z,102162.36
2018-09-25T05:11:24.470Z,102170.20
2018-09-25T05:16:48.418Z,102164.48
2018-09-25T05:22:12.254Z,102166.34
2018-09-25T05:27:35.904Z,102178.00
2018-09-25T05:32:59.746Z,102184.35
2018-09-25T05:38:23.922Z,102182.66
2018-09-25T05:43:49.319Z,102188.63
2018-09-25T05:49:13.412Z,102182.60
2018-09-25T05:54:37.419Z,102189.94
2018-09-25T06:00:01.402Z,102199.30
2018-09-25T06:05:25.368Z,102200.88
2018-09-25T06:10:49.172Z,102193.20
2018-09-25T06:16:13.292Z,102197.95
2018-09-25T06:21:36.973Z,102198.64
2018-09-25T06:27:08.552Z,102201.03
2018-09-25T06:32:32.443Z,102211.33
2018-09-25T06:37:56.311Z,102218.02
2018-09-25T06:43:20.085Z,102221.21
2018-09-25T06:48:43.791Z,102221.77
2018-09-25T06:54:07.725Z,102234.85
2018-09-25T06:59:31.672Z,102236.27
2018-09-25T07:04:55.459Z,102241.13
2018-09-25T07:10:19.353Z,102252.45
2018-09-25T07:15:43.052Z,102255.67
2018-09-25T07:21:06.836Z,102265.19
2018-09-25T07:26:30.874Z,102260.02
2018-09-25T07:31:54.912Z,102264.75
2018-09-25T07:37:18.778Z,102268.59
2018-09-25T07:42:42.602Z,102270.17
2018-09-25T07:48:06.337Z,102271.61
2018-09-25T07:53:30.105Z,102277.10
2018-09-25T07:58:54.080Z,102282.90
2018-09-25T08:04:17.727Z,102287.97
2018-09-25T08:09:41.620Z,102293.23
2018-09-25T08:15:05.642Z,102296.97
2018-09-25T08:20:29.569Z,102305.36
2018-09-25T08:25:53.566Z,102308.75
2018-09-25T08:31:17.402Z,102304.42
2018-09-25T08:36:41.365Z,102307.36
2018-09-25T08:42:05.183Z,102311.89
2018-09-25T08:47:29.332Z,102308.08
2018-09-25T08:52:53.398Z,102313.53
2018-09-25T08:58:17.691Z,102317.66
2018-09-25T09:03:41.878Z,102327.52
2018-09-25T09:09:05.753Z,102328.64
2018-09-25T09:14:29.859Z,102328.27
2018-09-25T09:19:53.851Z,102326.78
2018-09-25T09:25:17.731Z,102326.97
2018-09-25T09:30:41.714Z,102332.05
2018-09-25T09:36:05.718Z,102326.56
2018-09-25T09:41:29.602Z,102330.81
2018-09-25T09:46:53.459Z,102329.55
2018-09-25T09:52:17.255Z,102326.02
2018-09-25T09:57:41.059Z,102335.45
2018-09-25T10:03:05.051Z,102332.73
2018-09-25T10:08:29.727Z,102338.83
2018-09-25T10:13:53.674Z,102336.31
2018-09-25T10:19:17.475Z,102334.34
2018-09-25T10:24:41.510Z,102334.20
2018-09-25T10:30:05.565Z,102332.13
2018-09-25T10:35:29.390Z,102340.64
2018-09-25T10:40:53.393Z,102343.19
2018-09-25T10:46:17.146Z,102346.62
2018-09-25T10:51:41.149Z,102351.72
2018-09-25T10:57:04.895Z,102337.88
2018-09-25T11:02:28.660Z,102343.42
2018-09-25T11:07:52.524Z,102342.30
2018-09-25T11:13:16.393Z,102332.20
2018-09-25T11:18:40.243Z,102332.81
2018-09-25T11:24:04.314Z,102335.24
2018-09-25T11:29:28.159Z,102328.05
2018-09-25T11:34:51.983Z,102330.42
2018-09-25T11:40:15.785Z,102322.66
2018-09-25T11:45:39.494Z,102322.67
2018-09-25T11:51:03.385Z,102301.98
2018-09-25T11:56:27.273Z,102298.19
2018-09-25T12:01:51.048Z,102317.55
2018-09-25T12:07:14.901Z,102331.77
2018-09-25T12:12:38.703Z,102320.39
2018-09-25T12:18:02.374Z,102295.01
2018-09-25T12:23:26.178Z,102290.50
2018-09-25T12:28:49.894Z,102290.63
2018-09-25T12:34:13.590Z,102279.45
2018-09-25T12:39:37.448Z,102274.80
2018-09-25T12:45:01.240Z,102269.98
2018-09-25T12:50:25.212Z,102269.50
2018-09-25T12:55:48.901Z,102261.34
2018-09-25T13:01:12.859Z,102266.75
2018-09-25T13:06:36.576Z,102252.11
2018-09-25T13:12:00.440Z,102239.76
2018-09-25T13:17:24.187Z,102235.41
2018-09-25T13:22:48.027Z,102231.79
2018-09-25T13:28:11.781Z,102235.70
2018-09-25T13:33:35.557Z,102230.92
2018-09-25T13:38:59.287Z,102216.40
2018-09-25T13:44:23.144Z,102209.56
2018-09-25T13:49:46.772Z,102212.23
2018-09-25T13:55:11.182Z,102205.05
2018-09-25T14:00:34.856Z,102203.37
2018-09-25T14:05:58.677Z,102185.20
2018-09-25T14:11:22.511Z,102191.55
2018-09-25T14:16:46.384Z,102177.02
2018-09-25T14:22:10.176Z,102175.37
2018-09-25T14:27:33.988Z,102172.69
2018-09-25T14:32:57.926Z,102168.53
2018-09-25T14:38:21.674Z,102162.17
2018-09-25T14:43:45.412Z,102157.14
2018-09-25T14:49:09.296Z,102150.64
2018-09-25T14:54:33.135Z,102148.41
2018-09-25T14:59:56.844Z,102139.41
2018-09-25T15:05:20.578Z,102134.72
2018-09-25T15:10:44.424Z,102134.37
2018-09-25T15:16:08.157Z,102128.39
2018-09-25T15:21:32.058Z,102128.94
2018-09-25T15:26:55.783Z,102128.64
2018-09-25T15:32:19.578Z,102115.45
2018-09-25T15:37:43.306Z,102123.30
2018-09-25T15:43:07.068Z,102113.80
2018-09-25T15:48:30.935Z,102109.14
2018-09-25T15:53:54.613Z,102098.11
2018-09-25T15:59:18.419Z,102095.42
2018-09-25T16:04:42.161Z,102092.75
2018-09-25T16:10:05.837Z,102099.23
2018-09-25T16:15:29.633Z,102107.75
2018-09-25T16:20:53.371Z,102110.55
2018-09-25T16:26:17.068Z,102115.26
2018-09-25T16:31:40.791Z,102123.94
2018-09-25T16:37:04.692Z,102106.05
2018-09-25T16:42:28.408Z,102119.12
2018-09-25T16:47:52.279Z,102117.13
2018-09-25T16:53:15.972Z,102128.73
2018-09-25T16:58:39.835Z,102129.05
2018-09-25T17:04:03.660Z,102125.05
2018-09-25T17:09:27.247Z,102139.89
2018-09-25T17:14:50.936Z,102135.82
2018-09-25T17:20:14.780Z,102129.39
2018-09-25T17:25:38.646Z,102128.20
2018-09-25T17:31:02.383Z,102138.22
2018-09-25T17:36:26.116Z,102134.05
2018-09-25T17:41:49.927Z,102139.80
2018-09-25T17:47:13.618Z,102144.91
2018-09-25T17:52:37.384Z,102143.16
2018-09-25T17:58:01.226Z,102140.46
2018-09-25T18:03:25.026Z,102141.67
2018-09-25T18:08:48.967Z,102151.87
2018-09-25T18:14:13.055Z,102150.62
2018-09-25T18:19:36.812Z,102154.23
2018-09-25T18:25:00.487Z,102151.34
2018-09-25T18:30:24.240Z,102146.28
2018-09-25T18:35:48.012Z,102161.81
2018-09-25T18:41:11.773Z,102152.46
2018-09-25T18:46:35.596Z,102166.11
2018-09-25T18:51:59.449Z,102164.31
2018-09-25T18:57:23.498Z,102161.14
2018-09-25T19:02:47.183Z,102157.59
2018-09-25T19:08:10.778Z,102169.86
2018-09-25T19:13:34.436Z,102172.25
2018-09-25T19:18:58.313Z,102165.80
2018-09-25T19:24:21.948Z,102163.00
2018-09-25T19:29:45.669Z,102161.20
2018-09-25T19:35:09.615Z,102162.20
2018-09-25T19:40:33.692Z,102152.15
2018-09-25T19:45:57.542Z,102160.55
2018-09-25T19:51:21.197Z,102164.08
2018-09-25T19:56:45.052Z,102161.70
2018-09-25T20:02:08.763Z,102152.66
2018-09-25T20:07:32.537Z,102122.30
2018-09-25T20:12:56.580Z,102120.27
2018-09-25T20:18:20.249Z,102122.21
2018-09-25T20:23:43.973Z,102129.17
2018-09-25T20:29:07.825Z,102147.30
2018-09-25T20:34:31.711Z,102133.87
2018-09-25T20:39:56.499Z,102122.91
2018-09-25T20:45:20.183Z,102121.06
2018-09-25T20:50:44.310Z,102113.74
2018-09-25T20:56:08.017Z,102118.55
2018-09-25T21:01:31.873Z,102114.84
2018-09-25T21:06:55.671Z,102091.34
2018-09-25T21:12:19.304Z,102080.68
2018-09-25T21:17:43.133Z,102094.59
2018-09-25T21:23:08.740Z,102119.19
2018-09-25T21:28:32.657Z,102125.30
2018-09-25T21:33:56.315Z,102114.64
2018-09-25T21:39:19.915Z,102103.39
2018-09-25T21:44:43.607Z,102093.66
2018-09-25T21:50:07.437Z,102055.66
2018-09-25T21:55:31.081Z,102051.72
2018-09-25T22:00:54.800Z,102035.06
2018-09-25T22:06:18.655Z,102029.09
2018-09-25T22:11:42.485Z,102024.38
2018-09-25T22:17:06.298Z,102027.75
2018-09-25T22:22:29.944Z,102022.09
2018-09-25T22:27:53.644Z,102018.03
2018-09-25T22:33:17.275Z,102017.42
2018-09-25T22:38:41.063Z,102010.95
2018-09-25T22:44:04.909Z,102004.84
2018-09-25T22:49:28.745Z,102004.73
2018-09-25T22:54:52.654Z,102009.05
2018-09-25T23:00:16.285Z,101998.52
2018-09-25T23:05:40.039Z,101986.64
2018-09-25T23:11:03.722Z,101976.00
2018-09-25T23:16:27.390Z,101972.39
2018-09-25T23:21:51.105Z,101980.30
2018-09-25T23:27:14.820Z,101990.97
2018-09-25T23:32:38.709Z,101987.87
2018-09-25T23:38:02.574Z,101995.86
2018-09-25T23:43:34.307Z,102010.95
2018-09-25T23:48:57.986Z,102012.15
2018-09-25T23:54:25.202Z,102014.98
2018-09-25T23:59:55.808Z,102014.41
